createdAt,value
2023-03-30T00:00:23.229Z,93143.00
2023-03-30T00:01:23.196Z,93139.00
2023-03-30T00:02:23.228Z,93141.00
2023-03-30T00:03:23.386Z,93143.00
2023-03-30T00:04:23.447Z,93139.00
2023-03-30T00:05:23.348Z,93137.00
2023-03-30T00:06:23.668Z,93139.00
2023-03-30T00:07:23.449Z,93135.00
2023-03-30T00:08:23.942Z,93141.00
2023-03-30T00:09:23.586Z,93145.00
2023-03-30T00:10:23.589Z,93149.00
2023-03-30T00:11:23.624Z,93153.00
2023-03-30T00:12:23.674Z,93151.00
2023-03-30T00:13:23.733Z,93149.00
2023-03-30T00:14:23.776Z,93153.00
2023-03-30T00:15:23.848Z,93147.00
2023-03-30T00:16:23.936Z,93147.00
2023-03-30T00:17:23.911Z,93147.00
2023-03-30T00:18:23.958Z,93153.00
2023-03-30T00:19:24.039Z,93153.00
2023-03-30T00:20:24.119Z,93151.00
2023-03-30T00:21:24.179Z,93155.00
2023-03-30T00:22:24.142Z,93159.00
2023-03-30T00:23:24.187Z,93159.00
2023-03-30T00:24:24.247Z,93159.00
2023-03-30T00:25:24.286Z,93161.00
2023-03-30T00:26:24.454Z,93161.00
2023-03-30T00:27:24.365Z,93163.00
2023-03-30T00:28:24.412Z,93161.00
2023-03-30T00:29:24.453Z,93159.00
2023-03-30T00:30:24.597Z,93159.00
2023-03-30T00:31:24.652Z,93161.00
2023-03-30T00:32:24.631Z,93159.00
2023-03-30T00:33:37.146Z,93157.00
2023-03-30T00:34:25.632Z,93151.00
2023-03-30T00:35:24.719Z,93147.00
2023-03-30T00:36:24.671Z,93143.00
2023-03-30T00:37:24.647Z,93139.00
2023-03-30T00:38:24.660Z,93137.00
2023-03-30T00:39:24.660Z,93137.00
2023-03-30T00:40:24.646Z,93137.00
2023-03-30T00:41:24.649Z,93135.00
2023-03-30T00:42:24.648Z,93133.00
2023-03-30T00:43:24.710Z,93133.00
2023-03-30T00:44:24.656Z,93133.00
2023-03-30T00:45:24.698Z,93131.00
2023-03-30T00:46:24.800Z,93131.00
2023-03-30T00:47:25.438Z,93133.00
2023-03-30T00:48:24.814Z,93131.00
2023-03-30T00:49:24.871Z,93131.00
2023-03-30T00:50:24.913Z,93128.00
2023-03-30T00:51:24.943Z,93122.00
2023-03-30T00:52:24.988Z,93124.00
2023-03-30T00:53:25.030Z,93120.00
2023-03-30T00:54:25.077Z,93118.00
2023-03-30T00:55:25.108Z,93120.00
2023-03-30T00:56:25.148Z,93122.00
2023-03-30T00:57:25.266Z,93118.00
2023-03-30T00:58:25.942Z,93120.00
2023-03-30T00:59:25.291Z,93120.00
2023-03-30T01:00:25.345Z,93118.00
2023-03-30T01:01:25.407Z,93116.00
2023-03-30T01:02:25.509Z,93114.00
2023-03-30T01:03:25.542Z,93114.00
2023-03-30T01:04:25.523Z,93114.00
2023-03-30T01:05:25.573Z,93106.00
2023-03-30T01:06:25.614Z,93112.00
2023-03-30T01:07:25.661Z,93100.00
2023-03-30T01:08:25.719Z,93098.00
2023-03-30T01:09:25.755Z,93098.00
2023-03-30T01:10:25.822Z,93090.00
2023-03-30T01:11:25.852Z,93106.00
2023-03-30T01:12:25.908Z,93098.00
2023-03-30T01:13:25.954Z,93098.00
2023-03-30T01:14:26.010Z,93102.00
2023-03-30T01:15:26.069Z,93102.00
2023-03-30T01:16:26.116Z,93090.00
2023-03-30T01:17:26.243Z,93084.00
2023-03-30T01:18:26.207Z,93084.00
2023-03-30T01:19:26.252Z,93084.00
2023-03-30T01:20:26.293Z,93077.00
2023-03-30T01:21:26.343Z,93071.00
2023-03-30T01:22:26.393Z,93067.00
2023-03-30T01:23:26.958Z,93069.00
2023-03-30T01:24:26.479Z,93069.00
2023-03-30T01:25:26.530Z,93063.00
2023-03-30T01:26:26.577Z,93057.00
2023-03-30T01:27:26.705Z,93059.00
2023-03-30T01:28:27.454Z,93059.00
2023-03-30T01:29:26.715Z,93055.00
2023-03-30T01:30:26.778Z,93051.00
2023-03-30T01:31:26.875Z,93051.00
2023-03-30T01:32:26.873Z,93051.00
2023-03-30T01:33:26.905Z,93049.00
2023-03-30T01:34:26.951Z,93051.00
2023-03-30T01:35:27.101Z,93059.00
2023-03-30T01:36:27.084Z,93053.00
2023-03-30T01:37:27.084Z,93051.00
2023-03-30T01:38:27.181Z,93051.00
2023-03-30T01:39:27.169Z,93061.00
2023-03-30T01:40:27.215Z,93055.00
2023-03-30T01:41:27.236Z,93049.00
2023-03-30T01:42:27.298Z,93047.00
2023-03-30T01:43:27.382Z,93053.00
2023-03-30T01:44:27.355Z,93049.00
2023-03-30T01:45:27.412Z,93051.00
2023-03-30T01:46:27.492Z,93047.00
2023-03-30T01:47:27.507Z,93043.00
2023-03-30T01:48:27.524Z,93047.00
2023-03-30T01:49:27.584Z,93045.00
2023-03-30T01:50:27.689Z,93039.00
2023-03-30T01:51:27.656Z,93037.00
2023-03-30T01:52:27.721Z,93037.00
2023-03-30T01:53:27.746Z,93037.00
2023-03-30T01:54:27.790Z,93036.00
2023-03-30T01:55:27.838Z,93036.00
2023-03-30T01:56:27.863Z,93034.00
2023-03-30T01:57:28.024Z,93030.00
2023-03-30T01:58:27.946Z,93032.00
2023-03-30T01:59:27.996Z,93030.00
2023-03-30T02:00:28.041Z,93026.00
2023-03-30T02:01:28.090Z,93024.00
2023-03-30T02:02:28.298Z,93022.00
2023-03-30T02:03:28.644Z,93016.00
2023-03-30T02:04:28.470Z,93020.00
2023-03-30T02:05:28.219Z,93018.00
2023-03-30T02:06:28.242Z,93022.00
2023-03-30T02:07:28.284Z,93024.00
2023-03-30T02:08:28.964Z,93016.00
2023-03-30T02:09:28.356Z,93016.00
2023-03-30T02:10:28.399Z,93014.00
2023-03-30T02:11:28.439Z,93012.00
2023-03-30T02:12:28.494Z,93014.00
2023-03-30T02:13:28.524Z,93014.00
2023-03-30T02:14:28.577Z,93014.00
2023-03-30T02:15:28.610Z,93010.00
2023-03-30T02:16:28.724Z,93012.00
2023-03-30T02:17:28.711Z,93014.00
2023-03-30T02:18:28.731Z,93012.00
2023-03-30T02:19:28.789Z,93012.00
2023-03-30T02:20:28.816Z,93018.00
2023-03-30T02:21:28.853Z,93016.00
2023-03-30T02:22:28.905Z,93024.00
2023-03-30T02:23:28.949Z,93018.00
2023-03-30T02:24:29.002Z,93018.00
2023-03-30T02:25:29.039Z,93020.00
2023-03-30T02:26:29.084Z,93016.00
2023-03-30T02:27:29.969Z,93010.00
2023-03-30T02:28:29.201Z,93006.00
2023-03-30T02:29:29.219Z,93004.00
2023-03-30T02:30:29.260Z,93004.00
2023-03-30T02:31:29.343Z,93000.00
2023-03-30T02:32:29.394Z,92998.00
2023-03-30T02:33:29.398Z,92998.00
2023-03-30T02:34:29.456Z,92992.00
2023-03-30T02:35:29.516Z,92994.00
2023-03-30T02:36:29.552Z,92992.00
2023-03-30T02:37:29.589Z,93000.00
2023-03-30T02:38:29.664Z,92996.00
2023-03-30T02:39:29.706Z,92994.00
2023-03-30T02:40:29.816Z,93002.00
2023-03-30T02:41:29.768Z,92998.00
2023-03-30T02:42:29.829Z,93000.00
2023-03-30T02:43:29.890Z,92990.00
2023-03-30T02:44:29.932Z,92992.00
2023-03-30T02:45:29.996Z,92992.00
2023-03-30T02:46:30.000Z,92992.00
2023-03-30T02:47:30.092Z,92986.00
2023-03-30T02:48:30.096Z,92986.00
2023-03-30T02:49:30.216Z,92986.00
2023-03-30T02:50:30.186Z,92990.00
2023-03-30T02:51:30.294Z,92986.00
2023-03-30T02:52:30.278Z,92982.00
2023-03-30T02:53:30.325Z,92982.00
2023-03-30T02:54:30.365Z,92981.00
2023-03-30T02:55:30.425Z,92979.00
2023-03-30T02:56:30.505Z,92975.00
2023-03-30T02:57:30.512Z,92973.00
2023-03-30T02:58:31.502Z,92971.00
2023-03-30T02:59:30.530Z,92963.00
2023-03-30T03:00:30.510Z,92967.00
2023-03-30T03:01:30.557Z,92963.00
2023-03-30T03:02:31.042Z,92967.00
2023-03-30T03:03:30.588Z,92967.00
2023-03-30T03:04:30.488Z,92969.00
2023-03-30T03:05:30.475Z,92973.00
2023-03-30T03:06:30.461Z,92973.00
2023-03-30T03:07:30.451Z,92967.00
2023-03-30T03:08:30.479Z,92965.00
2023-03-30T03:09:30.539Z,92967.00
2023-03-30T03:10:30.575Z,92963.00
2023-03-30T03:11:30.618Z,92961.00
2023-03-30T03:12:30.662Z,92961.00
2023-03-30T03:13:30.714Z,92955.00
2023-03-30T03:14:30.769Z,92959.00
2023-03-30T03:15:30.839Z,92959.00
2023-03-30T03:16:30.900Z,92959.00
2023-03-30T03:17:30.905Z,92959.00
2023-03-30T03:18:30.941Z,92955.00
2023-03-30T03:19:30.982Z,92953.00
2023-03-30T03:20:31.051Z,92953.00
2023-03-30T03:21:31.076Z,92951.00
2023-03-30T03:22:31.136Z,92953.00
2023-03-30T03:23:31.183Z,92951.00
2023-03-30T03:24:31.221Z,92949.00
2023-03-30T03:25:31.278Z,92943.00
2023-03-30T03:26:31.320Z,92941.00
2023-03-30T03:27:31.362Z,92943.00
2023-03-30T03:28:31.416Z,92943.00
2023-03-30T03:29:31.457Z,92939.00
2023-03-30T03:30:31.498Z,92941.00
2023-03-30T03:31:31.606Z,92945.00
2023-03-30T03:32:31.571Z,92945.00
2023-03-30T03:33:31.617Z,92943.00
2023-03-30T03:34:31.658Z,92939.00
2023-03-30T03:35:31.729Z,92941.00
2023-03-30T03:36:31.753Z,92943.00
2023-03-30T03:37:31.786Z,92943.00
2023-03-30T03:38:31.830Z,92941.00
2023-03-30T03:39:31.872Z,92941.00
2023-03-30T03:40:31.989Z,92939.00
2023-03-30T03:41:31.948Z,92937.00
2023-03-30T03:42:32.110Z,92937.00
2023-03-30T03:43:32.043Z,92934.00
2023-03-30T03:44:32.081Z,92932.00
2023-03-30T03:45:32.134Z,92930.00
2023-03-30T03:46:32.201Z,92926.00
2023-03-30T03:47:32.224Z,92930.00
2023-03-30T03:48:32.271Z,92928.00
2023-03-30T03:49:32.309Z,92935.00
2023-03-30T03:50:32.370Z,92937.00
2023-03-30T03:51:32.482Z,92941.00
2023-03-30T03:52:32.454Z,92939.00
2023-03-30T03:53:32.493Z,92934.00
2023-03-30T03:54:32.538Z,92934.00
2023-03-30T03:55:32.579Z,92934.00
2023-03-30T03:56:32.629Z,92934.00
2023-03-30T03:57:32.710Z,92937.00
2023-03-30T03:58:32.707Z,92943.00
2023-03-30T03:59:32.756Z,92947.00
2023-03-30T04:00:32.822Z,92949.00
2023-03-30T04:01:32.862Z,92957.00
2023-03-30T04:02:32.972Z,92951.00
2023-03-30T04:03:32.943Z,92949.00
2023-03-30T04:04:33.037Z,92949.00
2023-03-30T04:05:33.045Z,92949.00
2023-03-30T04:06:33.090Z,92947.00
2023-03-30T04:07:33.140Z,92945.00
2023-03-30T04:08:33.182Z,92949.00
2023-03-30T04:09:33.237Z,92949.00
2023-03-30T04:10:33.291Z,92953.00
2023-03-30T04:11:33.345Z,92953.00
2023-03-30T04:12:33.385Z,92953.00
2023-03-30T04:13:33.446Z,92955.00
2023-03-30T04:14:33.506Z,92957.00
2023-03-30T04:15:33.562Z,92959.00
2023-03-30T04:16:33.693Z,92961.00
2023-03-30T04:17:33.697Z,92961.00
2023-03-30T04:18:33.760Z,92963.00
2023-03-30T04:19:33.735Z,92965.00
2023-03-30T04:20:33.794Z,92971.00
2023-03-30T04:21:33.842Z,92967.00
2023-03-30T04:22:33.889Z,92967.00
2023-03-30T04:23:33.999Z,92965.00
2023-03-30T04:24:33.995Z,92961.00
2023-03-30T04:25:34.048Z,92957.00
2023-03-30T04:26:34.095Z,92957.00
2023-03-30T04:27:34.152Z,92957.00
2023-03-30T04:28:34.215Z,92955.00
2023-03-30T04:29:34.258Z,92957.00
2023-03-30T04:30:34.305Z,92955.00
2023-03-30T04:31:34.387Z,92953.00
2023-03-30T04:32:34.491Z,92955.00
2023-03-30T04:33:34.452Z,92957.00
2023-03-30T04:34:34.506Z,92955.00
2023-03-30T04:35:34.665Z,92957.00
2023-03-30T04:36:34.615Z,92959.00
2023-03-30T04:37:34.663Z,92963.00
2023-03-30T04:38:34.733Z,92961.00
2023-03-30T04:39:34.763Z,92959.00
2023-03-30T04:40:34.824Z,92961.00
2023-03-30T04:41:34.920Z,92957.00
2023-03-30T04:42:34.917Z,92963.00
2023-03-30T04:43:34.981Z,92965.00
2023-03-30T04:44:35.022Z,92963.00
2023-03-30T04:45:35.110Z,92963.00
2023-03-30T04:46:35.114Z,92961.00
2023-03-30T04:47:35.171Z,92967.00
2023-03-30T04:48:35.203Z,92959.00
2023-03-30T04:49:35.234Z,92961.00
2023-03-30T04:50:35.284Z,92961.00
2023-03-30T04:51:35.334Z,92965.00
2023-03-30T04:52:35.367Z,92967.00
2023-03-30T04:53:35.430Z,92973.00
2023-03-30T04:54:35.474Z,92971.00
2023-03-30T04:55:35.515Z,92975.00
2023-03-30T04:56:35.564Z,92971.00
2023-03-30T04:57:35.644Z,92971.00
2023-03-30T04:58:35.652Z,92975.00
2023-03-30T04:59:35.709Z,92979.00
2023-03-30T05:00:35.742Z,92979.00
2023-03-30T05:01:35.820Z,92982.00
2023-03-30T05:02:35.946Z,92979.00
2023-03-30T05:03:35.956Z,92979.00
2023-03-30T05:04:35.914Z,92979.00
2023-03-30T05:05:35.951Z,92982.00
2023-03-30T05:06:35.996Z,92979.00
2023-03-30T05:07:36.044Z,92979.00
2023-03-30T05:08:36.084Z,92981.00
2023-03-30T05:09:36.123Z,92977.00
2023-03-30T05:10:36.171Z,92984.00
2023-03-30T05:11:36.213Z,92975.00
2023-03-30T05:12:36.255Z,92967.00
2023-03-30T05:13:36.302Z,92973.00
2023-03-30T05:14:36.347Z,92971.00
2023-03-30T05:15:37.036Z,92965.00
2023-03-30T05:16:36.474Z,92963.00
2023-03-30T05:17:36.511Z,92961.00
2023-03-30T05:18:36.528Z,92961.00
2023-03-30T05:19:36.562Z,92961.00
2023-03-30T05:20:36.601Z,92955.00
2023-03-30T05:21:36.729Z,92959.00
2023-03-30T05:22:36.632Z,92955.00
2023-03-30T05:23:36.653Z,92957.00
2023-03-30T05:24:36.665Z,92955.00
2023-03-30T05:25:36.678Z,92955.00
2023-03-30T05:26:36.749Z,92951.00
2023-03-30T05:27:37.538Z,92953.00
2023-03-30T05:28:36.674Z,92955.00
2023-03-30T05:29:36.679Z,92955.00
2023-03-30T05:30:36.666Z,92957.00
2023-03-30T05:31:36.740Z,92955.00
2023-03-30T05:32:36.727Z,92943.00
2023-03-30T05:33:36.706Z,92937.00
2023-03-30T05:34:36.810Z,92941.00
2023-03-30T05:35:36.864Z,92935.00
2023-03-30T05:36:36.864Z,92930.00
2023-03-30T05:37:36.969Z,92928.00
2023-03-30T05:38:36.956Z,92928.00
2023-03-30T05:39:37.021Z,92932.00
2023-03-30T05:40:37.039Z,92930.00
2023-03-30T05:41:37.082Z,92926.00
2023-03-30T05:42:38.549Z,92926.00
2023-03-30T05:43:37.195Z,92926.00
2023-03-30T05:44:37.192Z,92930.00
2023-03-30T05:45:37.216Z,92928.00
2023-03-30T05:46:38.224Z,92932.00
2023-03-30T05:47:37.218Z,92928.00
2023-03-30T05:48:37.176Z,92926.00
2023-03-30T05:49:37.763Z,92924.00
2023-03-30T05:50:38.055Z,92926.00
2023-03-30T05:51:37.121Z,92926.00
2023-03-30T05:52:37.113Z,92926.00
2023-03-30T05:53:37.970Z,92924.00
2023-03-30T05:54:37.068Z,92926.00
2023-03-30T05:55:37.030Z,92926.00
2023-03-30T05:56:37.003Z,92926.00
2023-03-30T05:57:37.155Z,92924.00
2023-03-30T05:58:37.514Z,92924.00
2023-03-30T05:59:36.996Z,92922.00
2023-03-30T06:00:37.602Z,92926.00
2023-03-30T06:01:37.009Z,92930.00
2023-03-30T06:02:37.059Z,92926.00
2023-03-30T06:03:37.132Z,92920.00
2023-03-30T06:04:37.041Z,92916.00
2023-03-30T06:05:37.028Z,92912.00
2023-03-30T06:06:37.016Z,92910.00
2023-03-30T06:07:37.004Z,92910.00
2023-03-30T06:08:37.009Z,92918.00
2023-03-30T06:09:36.994Z,92918.00
2023-03-30T06:10:36.996Z,92916.00
2023-03-30T06:11:37.056Z,92916.00
2023-03-30T06:12:36.990Z,92912.00
2023-03-30T06:13:36.964Z,92910.00
2023-03-30T06:14:36.968Z,92914.00
2023-03-30T06:15:36.948Z,92918.00
2023-03-30T06:16:36.957Z,92918.00
2023-03-30T06:17:37.048Z,92914.00
2023-03-30T06:18:36.907Z,92912.00
2023-03-30T06:19:37.519Z,92906.00
2023-03-30T06:20:36.872Z,92904.00
2023-03-30T06:21:36.919Z,92902.00
2023-03-30T06:22:36.826Z,92906.00
2023-03-30T06:23:36.796Z,92906.00
2023-03-30T06:24:36.778Z,92906.00
2023-03-30T06:25:36.844Z,92904.00
2023-03-30T06:26:36.730Z,92906.00
2023-03-30T06:27:36.717Z,92908.00
2023-03-30T06:28:36.685Z,92906.00
2023-03-30T06:29:36.650Z,92902.00
2023-03-30T06:30:36.651Z,92898.00
2023-03-30T06:31:36.712Z,92898.00
2023-03-30T06:32:36.632Z,92898.00
2023-03-30T06:33:37.511Z,92892.00
2023-03-30T06:34:36.589Z,92896.00
2023-03-30T06:35:36.604Z,92894.00
2023-03-30T06:36:44.191Z,92890.00
2023-03-30T06:37:37.544Z,92884.00
2023-03-30T06:38:36.477Z,92882.00
2023-03-30T06:39:36.464Z,92879.00
2023-03-30T06:40:36.427Z,92880.00
2023-03-30T06:41:36.396Z,92877.00
2023-03-30T06:42:36.371Z,92886.00
2023-03-30T06:43:36.348Z,92892.00
2023-03-30T06:44:36.316Z,92892.00
2023-03-30T06:45:36.396Z,92896.00
2023-03-30T06:46:36.257Z,92892.00
2023-03-30T06:47:36.264Z,92890.00
2023-03-30T06:48:36.251Z,92888.00
2023-03-30T06:49:36.320Z,92886.00
2023-03-30T06:50:36.323Z,92890.00
2023-03-30T06:51:36.349Z,92890.00
2023-03-30T06:52:36.365Z,92888.00
2023-03-30T06:53:36.329Z,92886.00
2023-03-30T06:54:36.324Z,92880.00
2023-03-30T06:55:36.351Z,92882.00
2023-03-30T06:56:36.304Z,92879.00
2023-03-30T06:57:36.290Z,92873.00
2023-03-30T06:58:36.272Z,92869.00
2023-03-30T06:59:36.990Z,92867.00
2023-03-30T07:00:36.244Z,92865.00
2023-03-30T07:01:36.270Z,92865.00
2023-03-30T07:02:36.314Z,92865.00
2023-03-30T07:03:36.264Z,92869.00
2023-03-30T07:04:36.371Z,92873.00
2023-03-30T07:05:36.309Z,92871.00
2023-03-30T07:06:36.344Z,92869.00
2023-03-30T07:07:36.376Z,92867.00
2023-03-30T07:08:36.410Z,92865.00
2023-03-30T07:09:36.429Z,92863.00
2023-03-30T07:10:36.459Z,92863.00
2023-03-30T07:11:36.667Z,92861.00
2023-03-30T07:12:36.511Z,92863.00
2023-03-30T07:13:36.529Z,92859.00
2023-03-30T07:14:36.535Z,92865.00
2023-03-30T07:15:36.556Z,92863.00
2023-03-30T07:16:36.659Z,92867.00
2023-03-30T07:17:36.627Z,92869.00
2023-03-30T07:18:36.581Z,92871.00
2023-03-30T07:19:36.599Z,92869.00
2023-03-30T07:20:36.626Z,92867.00
2023-03-30T07:21:36.620Z,92865.00
2023-03-30T07:22:37.609Z,92861.00
2023-03-30T07:23:36.616Z,92859.00
2023-03-30T07:24:36.634Z,92863.00
2023-03-30T07:25:37.752Z,92863.00
2023-03-30T07:26:36.709Z,92863.00
2023-03-30T07:27:36.745Z,92855.00
2023-03-30T07:28:36.731Z,92853.00
2023-03-30T07:29:37.028Z,92849.00
2023-03-30T07:30:37.594Z,92849.00
2023-03-30T07:31:36.719Z,92849.00
2023-03-30T07:32:36.770Z,92834.00
2023-03-30T07:33:36.707Z,92843.00
2023-03-30T07:34:36.662Z,92841.00
2023-03-30T07:35:36.704Z,92830.00
2023-03-30T07:36:36.718Z,92828.00
2023-03-30T07:37:36.761Z,92828.00
2023-03-30T07:38:36.768Z,92826.00
2023-03-30T07:39:36.865Z,92822.00
2023-03-30T07:40:36.885Z,92818.00
2023-03-30T07:41:36.836Z,92820.00
2023-03-30T07:42:36.868Z,92822.00
2023-03-30T07:43:37.091Z,92820.00
2023-03-30T07:44:36.886Z,92820.00
2023-03-30T07:45:36.893Z,92822.00
2023-03-30T07:46:36.956Z,92828.00
2023-03-30T07:47:36.952Z,92832.00
2023-03-30T07:48:36.997Z,92832.00
2023-03-30T07:49:36.943Z,92830.00
2023-03-30T07:50:36.952Z,92824.00
2023-03-30T07:51:37.098Z,92822.00
2023-03-30T07:52:36.951Z,92820.00
2023-03-30T07:53:36.968Z,92820.00
2023-03-30T07:54:37.959Z,92822.00
2023-03-30T07:55:36.876Z,92820.00
2023-03-30T07:56:36.877Z,92814.00
2023-03-30T07:57:36.830Z,92812.00
2023-03-30T07:58:36.744Z,92806.00
2023-03-30T07:59:36.715Z,92806.00
2023-03-30T08:00:36.673Z,92804.00
2023-03-30T08:01:36.629Z,92804.00
2023-03-30T08:02:36.713Z,92804.00
2023-03-30T08:03:36.639Z,92800.00
2023-03-30T08:04:36.710Z,92804.00
2023-03-30T08:05:36.532Z,92804.00
2023-03-30T08:06:36.441Z,92808.00
2023-03-30T08:07:36.383Z,92808.00
2023-03-30T08:08:36.349Z,92806.00
2023-03-30T08:09:36.304Z,92802.00
2023-03-30T08:10:36.282Z,92796.00
2023-03-30T08:11:36.276Z,92791.00
2023-03-30T08:12:36.275Z,92783.00
2023-03-30T08:13:37.093Z,92781.00
2023-03-30T08:14:36.284Z,92781.00
2023-03-30T08:15:36.357Z,92779.00
2023-03-30T08:16:36.366Z,92781.00
2023-03-30T08:17:37.131Z,92781.00
2023-03-30T08:18:36.375Z,92783.00
2023-03-30T08:19:36.428Z,92775.00
2023-03-30T08:20:36.467Z,92775.00
2023-03-30T08:21:36.358Z,92773.00
2023-03-30T08:22:36.374Z,92773.00
2023-03-30T08:23:36.411Z,92775.00
2023-03-30T08:24:36.449Z,92771.00
2023-03-30T08:25:36.475Z,92771.00
2023-03-30T08:26:36.484Z,92773.00
2023-03-30T08:27:36.539Z,92773.00
2023-03-30T08:28:36.548Z,92773.00
2023-03-30T08:29:36.596Z,92775.00
2023-03-30T08:30:36.668Z,92771.00
2023-03-30T08:31:36.757Z,92773.00
2023-03-30T08:32:36.670Z,92773.00
2023-03-30T08:33:36.652Z,92775.00
2023-03-30T08:34:37.437Z,92777.00
2023-03-30T08:35:36.683Z,92777.00
2023-03-30T08:36:36.645Z,92775.00
2023-03-30T08:37:36.649Z,92775.00
2023-03-30T08:38:36.754Z,92779.00
2023-03-30T08:39:36.715Z,92781.00
2023-03-30T08:40:36.741Z,92783.00
2023-03-30T08:41:37.532Z,92781.00
2023-03-30T08:42:36.758Z,92779.00
2023-03-30T08:43:36.731Z,92777.00
2023-03-30T08:44:36.779Z,92765.00
2023-03-30T08:45:36.835Z,92759.00
2023-03-30T08:46:36.740Z,92753.00
2023-03-30T08:47:36.817Z,92755.00
2023-03-30T08:48:36.726Z,92761.00
2023-03-30T08:49:36.726Z,92757.00
2023-03-30T08:50:37.127Z,92755.00
2023-03-30T08:51:37.536Z,92755.00
2023-03-30T08:52:36.734Z,92755.00
2023-03-30T08:53:36.653Z,92753.00
2023-03-30T08:54:36.615Z,92753.00
2023-03-30T08:55:36.590Z,92751.00
2023-03-30T08:56:36.545Z,92749.00
2023-03-30T08:57:36.510Z,92755.00
2023-03-30T08:58:36.463Z,92757.00
2023-03-30T08:59:36.419Z,92757.00
2023-03-30T09:00:36.375Z,92753.00
2023-03-30T09:01:36.404Z,92751.00
2023-03-30T09:02:38.057Z,92748.00
2023-03-30T09:03:36.244Z,92748.00
2023-03-30T09:04:36.327Z,92746.00
2023-03-30T09:05:36.224Z,92746.00
2023-03-30T09:06:36.131Z,92744.00
2023-03-30T09:07:36.068Z,92746.00
2023-03-30T09:08:36.030Z,92748.00
2023-03-30T09:09:35.978Z,92748.00
2023-03-30T09:10:35.969Z,92740.00
2023-03-30T09:11:35.898Z,92736.00
2023-03-30T09:12:35.924Z,92734.00
2023-03-30T09:13:35.945Z,92736.00
2023-03-30T09:14:35.949Z,92732.00
2023-03-30T09:15:35.999Z,92738.00
2023-03-30T09:16:35.968Z,92738.00
2023-03-30T09:17:36.917Z,92736.00
2023-03-30T09:18:35.838Z,92738.00
2023-03-30T09:19:35.867Z,92738.00
2023-03-30T09:20:35.750Z,92736.00
2023-03-30T09:21:35.706Z,92742.00
2023-03-30T09:22:35.642Z,92742.00
2023-03-30T09:23:36.545Z,92740.00
2023-03-30T09:24:35.593Z,92742.00
2023-03-30T09:25:35.507Z,92744.00
2023-03-30T09:26:35.480Z,92742.00
2023-03-30T09:27:35.417Z,92740.00
2023-03-30T09:28:35.376Z,92734.00
2023-03-30T09:29:35.342Z,92730.00
2023-03-30T09:30:35.309Z,92724.00
2023-03-30T09:31:35.274Z,92720.00
2023-03-30T09:32:35.280Z,92720.00
2023-03-30T09:33:35.160Z,92720.00
2023-03-30T09:34:35.123Z,92722.00
2023-03-30T09:35:35.107Z,92718.00
2023-03-30T09:36:35.047Z,92712.00
2023-03-30T09:37:35.009Z,92706.00
2023-03-30T09:38:35.019Z,92708.00
2023-03-30T09:39:34.942Z,92708.00
2023-03-30T09:40:34.917Z,92704.00
2023-03-30T09:41:34.884Z,92700.00
2023-03-30T09:42:34.838Z,92694.00
2023-03-30T09:43:34.792Z,92700.00
2023-03-30T09:44:34.768Z,92702.00
2023-03-30T09:45:34.733Z,92700.00
2023-03-30T09:46:34.732Z,92696.00
2023-03-30T09:47:34.705Z,92698.00
2023-03-30T09:48:34.689Z,92694.00
2023-03-30T09:49:34.688Z,92693.00
2023-03-30T09:50:34.680Z,92691.00
2023-03-30T09:51:35.137Z,92687.00
2023-03-30T09:52:34.674Z,92683.00
2023-03-30T09:53:35.635Z,92677.00
2023-03-30T09:54:34.672Z,92671.00
2023-03-30T09:55:34.675Z,92663.00
2023-03-30T09:56:34.687Z,92661.00
2023-03-30T09:57:34.716Z,92665.00
2023-03-30T09:58:34.719Z,92663.00
2023-03-30T09:59:34.704Z,92655.00
2023-03-30T10:00:34.753Z,92651.00
2023-03-30T10:01:34.765Z,92646.00
2023-03-30T10:02:34.784Z,92640.00
2023-03-30T10:03:34.844Z,92642.00
2023-03-30T10:04:34.756Z,92636.00
2023-03-30T10:05:34.727Z,92632.00
2023-03-30T10:06:34.740Z,92628.00
2023-03-30T10:07:34.753Z,92628.00
2023-03-30T10:08:34.737Z,92624.00
2023-03-30T10:09:34.747Z,92628.00
2023-03-30T10:10:34.776Z,92624.00
2023-03-30T10:11:34.762Z,92626.00
2023-03-30T10:12:34.743Z,92626.00
2023-03-30T10:13:34.750Z,92622.00
2023-03-30T10:14:34.790Z,92624.00
2023-03-30T10:15:34.835Z,92624.00
2023-03-30T10:16:34.887Z,92626.00
2023-03-30T10:17:34.853Z,92616.00
2023-03-30T10:18:34.753Z,92622.00
2023-03-30T10:19:37.574Z,92616.00
2023-03-30T10:20:34.708Z,92614.00
2023-03-30T10:21:35.650Z,92606.00
2023-03-30T10:22:34.628Z,92604.00
2023-03-30T10:23:34.576Z,92596.00
2023-03-30T10:24:34.539Z,92592.00
2023-03-30T10:25:34.652Z,92591.00
2023-03-30T10:26:34.466Z,92587.00
2023-03-30T10:27:34.496Z,92585.00
2023-03-30T10:28:34.379Z,92577.00
2023-03-30T10:29:34.358Z,92575.00
2023-03-30T10:30:34.337Z,92571.00
2023-03-30T10:31:34.349Z,92567.00
2023-03-30T10:32:34.317Z,92565.00
2023-03-30T10:33:35.151Z,92563.00
2023-03-30T10:34:34.185Z,92563.00
2023-03-30T10:35:34.208Z,92557.00
2023-03-30T10:36:34.107Z,92555.00
2023-03-30T10:37:34.061Z,92550.00
2023-03-30T10:38:34.033Z,92546.00
2023-03-30T10:39:33.996Z,92540.00
2023-03-30T10:40:33.975Z,92536.00
2023-03-30T10:41:34.654Z,92532.00
2023-03-30T10:42:33.913Z,92534.00
2023-03-30T10:43:33.870Z,92534.00
2023-03-30T10:44:33.817Z,92536.00
2023-03-30T10:45:33.840Z,92540.00
2023-03-30T10:46:33.794Z,92540.00
2023-03-30T10:47:33.786Z,92544.00
2023-03-30T10:49:01.009Z,92538.00
2023-03-30T10:50:00.981Z,92534.00
2023-03-30T10:51:00.985Z,92526.00
2023-03-30T10:52:00.964Z,92522.00
2023-03-30T10:53:01.018Z,92522.00
2023-03-30T10:54:00.975Z,92518.00
2023-03-30T10:55:00.930Z,92520.00
2023-03-30T10:56:00.921Z,92520.00
2023-03-30T10:57:00.962Z,92516.00
2023-03-30T10:58:00.895Z,92508.00
2023-03-30T10:59:00.893Z,92508.00
2023-03-30T11:00:01.230Z,92501.00
2023-03-30T11:01:01.252Z,92501.00
2023-03-30T11:02:00.868Z,92501.00
2023-03-30T11:03:00.974Z,92499.00
2023-03-30T11:04:09.343Z,92491.00
2023-03-30T11:05:01.811Z,92489.00
2023-03-30T11:06:00.853Z,92485.00
2023-03-30T11:07:00.799Z,92481.00
2023-03-30T11:08:00.814Z,92477.00
2023-03-30T11:09:00.763Z,92481.00
2023-03-30T11:10:00.750Z,92477.00
2023-03-30T11:11:00.754Z,92477.00
2023-03-30T11:12:00.724Z,92475.00
2023-03-30T11:13:00.813Z,92475.00
2023-03-30T11:14:00.819Z,92477.00
2023-03-30T11:15:01.125Z,92477.00
2023-03-30T11:16:00.918Z,92473.00
2023-03-30T11:17:01.034Z,92477.00
2023-03-30T11:18:01.190Z,92477.00
2023-03-30T11:19:01.142Z,92477.00
2023-03-30T11:20:01.158Z,92475.00
2023-03-30T11:21:01.694Z,92473.00
2023-03-30T11:22:01.259Z,92465.00
2023-03-30T11:23:01.312Z,92461.00
2023-03-30T11:24:01.385Z,92463.00
2023-03-30T11:25:01.446Z,92461.00
2023-03-30T11:26:01.492Z,92460.00
2023-03-30T11:27:01.537Z,92458.00
2023-03-30T11:28:01.602Z,92456.00
2023-03-30T11:29:01.646Z,92454.00
2023-03-30T11:30:01.736Z,92450.00
2023-03-30T11:31:01.746Z,92448.00
2023-03-30T11:32:01.868Z,92444.00
2023-03-30T11:33:01.897Z,92444.00
2023-03-30T11:34:01.889Z,92442.00
2023-03-30T11:35:01.915Z,92440.00
2023-03-30T11:36:02.156Z,92438.00
2023-03-30T11:37:02.020Z,92440.00
2023-03-30T11:38:02.077Z,92440.00
2023-03-30T11:39:02.119Z,92438.00
2023-03-30T11:40:02.184Z,92438.00
2023-03-30T11:41:02.213Z,92434.00
2023-03-30T11:42:02.274Z,92436.00
2023-03-30T11:43:02.301Z,92432.00
2023-03-30T11:44:02.376Z,92430.00
2023-03-30T11:45:02.420Z,92428.00